createdAt,value
2022-10-21T00:02:00.337Z,13.02
2022-10-21T00:04:27.143Z,12.02
2022-10-21T00:06:54.318Z,13.88
2022-10-21T00:09:21.234Z,11.23
2022-10-21T00:11:48.269Z,13.55
2022-10-21T00:14:15.255Z,16.20
2022-10-21T00:16:42.457Z,9.15
2022-10-21T00:19:09.351Z,9.70
2022-10-21T00:21:37.091Z,12.10
2022-10-21T00:24:04.415Z,5.70
2022-10-21T00:26:34.938Z,10.32
2022-10-21T00:29:04.880Z,7.13
2022-10-21T00:31:31.990Z,7.03
2022-10-21T00:33:59.110Z,7.60
2022-10-21T00:36:26.471Z,16.85
2022-10-21T00:38:53.462Z,17.88
2022-10-21T00:41:20.973Z,12.82
2022-10-21T00:44:06.512Z,11.15
2022-10-21T00:46:39.779Z,9.13
2022-10-21T00:49:15.119Z,5.32
2022-10-21T00:51:42.640Z,11.52
2022-10-21T00:54:10.161Z,8.18
2022-10-21T00:56:37.982Z,9.73
2022-10-21T00:59:06.600Z,10.55
2022-10-21T01:01:34.104Z,5.88
2022-10-21T01:04:03.453Z,6.72
2022-10-21T01:06:32.133Z,6.80
2022-10-21T01:08:59.935Z,11.15
2022-10-21T01:11:28.494Z,14.68
2022-10-21T01:14:17.154Z,8.48
2022-10-21T01:16:47.254Z,9.05
2022-10-21T01:19:21.151Z,13.15
2022-10-21T01:21:48.074Z,13.00
2022-10-21T01:24:23.491Z,8.05
2022-10-21T01:26:56.425Z,4.80
2022-10-21T01:29:52.627Z,7.70
2022-10-21T01:32:48.669Z,15.75
2022-10-21T01:35:38.703Z,25.23
2022-10-21T01:38:14.749Z,11.48
2022-10-21T01:41:18.622Z,7.55
2022-10-21T01:44:04.859Z,7.20
2022-10-21T01:46:37.191Z,15.80
2022-10-21T01:49:10.880Z,5.75
2022-10-21T01:51:38.018Z,6.25
2022-10-21T01:54:12.819Z,11.63
2022-10-21T01:56:43.089Z,20.30
2022-10-21T01:59:13.860Z,12.02
2022-10-21T02:01:44.326Z,11.55
2022-10-21T02:04:13.296Z,17.38
2022-10-21T02:06:40.324Z,14.45
2022-10-21T02:09:07.286Z,6.97
2022-10-21T02:11:36.792Z,7.05
2022-10-21T02:14:10.880Z,11.50
2022-10-21T02:16:40.209Z,3.88
2022-10-21T02:19:15.651Z,5.03
2022-10-21T02:21:43.970Z,7.53
2022-10-21T02:24:27.749Z,4.68
2022-10-21T02:26:55.287Z,6.85
2022-10-21T02:29:27.798Z,5.20
2022-10-21T02:32:09.186Z,7.93
2022-10-21T02:37:58.896Z,12.40
2022-10-21T02:40:40.454Z,15.32
2022-10-21T02:43:17.469Z,8.52
2022-10-21T02:45:47.582Z,11.57
2022-10-21T02:48:14.786Z,7.82
2022-10-21T02:50:41.776Z,18.95
2022-10-21T02:53:11.313Z,10.52
2022-10-21T02:55:38.286Z,4.78
2022-10-21T02:58:05.451Z,5.50
2022-10-21T03:00:33.102Z,11.45
2022-10-21T03:03:00.774Z,11.77
2022-10-21T03:05:28.161Z,11.43
2022-10-21T03:07:55.044Z,5.90
2022-10-21T03:10:22.113Z,8.13
2022-10-21T03:12:52.096Z,12.57
2022-10-21T03:15:19.393Z,10.10
2022-10-21T03:17:47.381Z,9.93
2022-10-21T03:20:15.060Z,22.15
2022-10-21T03:22:41.898Z,37.72
2022-10-21T03:25:09.397Z,20.15
2022-10-21T03:27:36.828Z,27.63
2022-10-21T03:30:05.943Z,31.13
2022-10-21T03:32:33.187Z,38.22
2022-10-21T03:35:00.167Z,24.25
2022-10-21T03:37:27.045Z,21.02
2022-10-21T03:39:53.969Z,36.05
2022-10-21T03:42:21.434Z,30.02
2022-10-21T03:44:48.402Z,12.77
2022-10-21T03:47:15.296Z,17.55
2022-10-21T03:49:42.460Z,26.23
2022-10-21T03:52:09.331Z,16.85
2022-10-21T03:54:36.242Z,11.93
2022-10-21T03:57:03.564Z,8.18
2022-10-21T03:59:30.882Z,10.75
2022-10-21T04:02:01.062Z,21.20
2022-10-21T04:04:28.593Z,8.68
2022-10-21T04:06:55.610Z,15.40
2022-10-21T04:09:22.540Z,16.13
2022-10-21T04:12:00.089Z,21.42
2022-10-21T04:14:32.761Z,11.35
2022-10-21T04:17:31.934Z,27.73
2022-10-21T04:20:29.126Z,23.13
2022-10-21T04:22:56.139Z,21.97
2022-10-21T04:25:23.262Z,53.10
2022-10-21T04:27:52.986Z,12.60
2022-10-21T04:30:37.720Z,24.30
2022-10-21T04:33:05.040Z,20.35
2022-10-21T04:35:31.791Z,31.15
2022-10-21T04:38:03.942Z,28.20
2022-10-21T04:40:31.173Z,17.83
2022-10-21T04:42:58.235Z,17.83
2022-10-21T04:45:25.541Z,17.75
2022-10-21T04:47:52.495Z,19.00
2022-10-21T04:50:19.852Z,17.30
2022-10-21T04:52:47.454Z,23.10
2022-10-21T04:55:14.350Z,20.45
2022-10-21T04:57:42.896Z,12.68
2022-10-21T05:00:10.957Z,8.25
2022-10-21T05:02:38.303Z,14.45
2022-10-21T05:05:06.378Z,17.48
2022-10-21T05:07:33.538Z,17.67
2022-10-21T05:10:00.847Z,13.07
2022-10-21T05:12:28.005Z,18.42
2022-10-21T05:14:55.243Z,8.55
2022-10-21T05:17:22.357Z,14.40
2022-10-21T05:19:49.386Z,12.38
2022-10-21T05:22:16.610Z,13.65
2022-10-21T05:24:43.734Z,18.13
2022-10-21T05:27:10.889Z,14.23
2022-10-21T05:29:37.766Z,22.30
2022-10-21T05:32:05.673Z,13.25
2022-10-21T05:34:32.854Z,17.85
2022-10-21T05:36:59.988Z,15.13
2022-10-21T05:39:26.999Z,22.13
2022-10-21T05:41:54.233Z,26.83
2022-10-21T05:44:21.430Z,29.42
2022-10-21T05:46:48.617Z,29.05
2022-10-21T05:49:15.615Z,24.73
2022-10-21T05:51:48.559Z,14.63
2022-10-21T05:54:15.920Z,17.50
2022-10-21T05:56:43.060Z,10.43
2022-10-21T05:59:13.191Z,11.88
2022-10-21T06:01:41.354Z,9.85
2022-10-21T06:04:09.031Z,14.55
2022-10-21T06:06:36.428Z,13.45
2022-10-21T06:09:08.259Z,22.42
2022-10-21T06:11:35.384Z,11.80
2022-10-21T06:14:02.498Z,8.15
2022-10-21T06:16:29.729Z,13.25
2022-10-21T06:18:56.888Z,7.57
2022-10-21T06:21:23.875Z,13.25
2022-10-21T06:23:54.445Z,9.48
2022-10-21T06:26:22.477Z,13.85
2022-10-21T06:28:50.234Z,12.27
2022-10-21T06:31:22.115Z,15.85
2022-10-21T06:33:49.877Z,12.95
2022-10-21T06:36:17.619Z,17.98
2022-10-21T06:38:45.309Z,12.57
2022-10-21T06:41:14.232Z,8.88
2022-10-21T06:43:43.047Z,11.93
2022-10-21T06:46:16.668Z,12.98
2022-10-21T06:48:44.352Z,13.38
2022-10-21T06:51:16.730Z,15.75
2022-10-21T06:53:44.586Z,15.60
2022-10-21T06:56:17.053Z,16.02
2022-10-21T06:58:49.106Z,5.55
2022-10-21T07:01:33.457Z,4.53
2022-10-21T07:04:02.105Z,11.13
2022-10-21T07:06:29.476Z,4.10
2022-10-21T07:08:58.571Z,12.85
2022-10-21T07:11:27.452Z,5.88
2022-10-21T07:13:55.620Z,9.15
2022-10-21T07:16:27.839Z,5.90
2022-10-21T07:18:55.806Z,7.78
2022-10-21T07:21:29.521Z,5.18
2022-10-21T07:23:59.589Z,5.53
2022-10-21T07:26:29.428Z,15.82
2022-10-21T07:28:59.422Z,6.28
2022-10-21T07:31:27.559Z,6.35
2022-10-21T07:33:57.802Z,5.90
2022-10-21T07:36:29.936Z,4.63
2022-10-21T07:39:04.067Z,9.88
2022-10-21T07:41:44.090Z,4.85
2022-10-21T07:44:11.999Z,4.55
2022-10-21T07:46:41.365Z,9.15
2022-10-21T07:49:09.407Z,4.38
2022-10-21T07:51:36.480Z,8.25
2022-10-21T07:54:04.277Z,8.60
2022-10-21T07:56:36.919Z,4.15
2022-10-21T07:59:07.757Z,2.78
2022-10-21T08:01:40.407Z,4.38
2022-10-21T08:04:08.113Z,7.75
2022-10-21T08:06:36.099Z,3.38
2022-10-21T08:09:04.677Z,12.07
2022-10-21T08:11:35.357Z,8.30
2022-10-21T08:14:03.489Z,5.55
2022-10-21T08:16:30.835Z,6.45
2022-10-21T08:19:01.067Z,9.50
2022-10-21T08:21:30.133Z,8.10
2022-10-21T08:24:05.776Z,5.38
2022-10-21T08:26:33.327Z,10.63
2022-10-21T08:29:06.141Z,12.25
2022-10-21T08:31:34.078Z,10.45
2022-10-21T08:34:03.987Z,4.22
2022-10-21T08:36:31.728Z,8.25
2022-10-21T08:38:59.026Z,8.15
2022-10-21T08:41:28.866Z,5.82
2022-10-21T08:44:07.359Z,7.28
2022-10-21T08:46:45.328Z,9.98
2022-10-21T08:49:45.603Z,6.30
2022-10-21T08:52:18.661Z,14.23
2022-10-21T08:54:52.144Z,11.00
2022-10-21T08:57:20.462Z,16.48
2022-10-21T08:59:47.593Z,11.05
2022-10-21T09:02:33.631Z,8.13
2022-10-21T09:05:10.052Z,3.95
2022-10-21T09:08:06.497Z,14.32
2022-10-21T09:11:01.280Z,6.95
2022-10-21T09:13:54.103Z,8.95
2022-10-21T09:16:59.888Z,7.53
2022-10-21T09:20:12.687Z,8.57
2022-10-21T09:22:58.995Z,12.68
2022-10-21T09:25:52.182Z,4.65
2022-10-21T09:28:19.385Z,5.13
2022-10-21T09:30:47.961Z,5.50
2022-10-21T09:33:25.686Z,6.63
2022-10-21T09:36:11.772Z,4.85
2022-10-21T09:38:53.673Z,11.32
2022-10-21T09:41:24.936Z,17.42
2022-10-21T09:43:52.253Z,5.50
2022-10-21T09:46:22.411Z,14.98
2022-10-21T09:51:45.601Z,8.63
2022-10-21T09:54:23.632Z,8.43
2022-10-21T09:57:02.508Z,7.03
2022-10-21T09:59:35.968Z,3.92
2022-10-21T10:02:11.256Z,7.38
2022-10-21T10:04:38.943Z,6.10
2022-10-21T10:07:33.357Z,3.63
2022-10-21T10:10:01.204Z,4.45
2022-10-21T10:12:29.554Z,7.03
2022-10-21T10:14:57.684Z,5.45
2022-10-21T10:17:37.535Z,4.25
2022-10-21T10:20:04.736Z,6.50
2022-10-21T10:22:38.172Z,7.28
2022-10-21T10:25:18.295Z,8.30
2022-10-21T10:28:09.352Z,12.57
2022-10-21T10:30:48.283Z,5.30
2022-10-21T10:33:26.498Z,10.77
2022-10-21T10:36:05.619Z,4.45
2022-10-21T10:38:42.773Z,4.82
2022-10-21T10:41:15.945Z,11.90
2022-10-21T10:43:54.572Z,3.88
2022-10-21T10:46:32.089Z,10.65
2022-10-21T10:49:07.058Z,5.25
2022-10-21T10:51:36.615Z,5.82
2022-10-21T10:54:06.781Z,5.00
2022-10-21T10:56:55.899Z,5.43
2022-10-21T10:59:36.996Z,6.97
2022-10-21T11:02:10.811Z,4.72
2022-10-21T11:04:42.046Z,7.22
2022-10-21T11:07:25.275Z,8.48
2022-10-21T11:10:01.437Z,5.05
2022-10-21T11:12:29.460Z,8.70
2022-10-21T11:14:58.529Z,5.50
2022-10-21T11:17:41.843Z,6.05
2022-10-21T11:20:24.772Z,8.63
2022-10-21T11:23:16.847Z,6.30
2022-10-21T11:25:50.930Z,8.63
2022-10-21T11:28:27.115Z,4.93
2022-10-21T11:32:10.124Z,7.22
2022-10-21T11:35:06.349Z,5.38
2022-10-21T11:38:04.288Z,11.48
2022-10-21T11:40:41.066Z,5.47
2022-10-21T11:43:28.492Z,7.50
2022-10-21T11:46:02.274Z,8.68
2022-10-21T11:48:47.480Z,9.13
2022-10-21T11:51:26.547Z,17.80
2022-10-21T11:54:13.584Z,8.95
2022-10-21T11:56:58.586Z,9.88
2022-10-21T11:59:55.269Z,7.93
2022-10-21T12:03:05.920Z,16.73
2022-10-21T12:05:39.956Z,7.00
2022-10-21T12:08:22.003Z,12.90
2022-10-21T12:11:36.209Z,7.88
2022-10-21T12:14:15.431Z,7.10
2022-10-21T12:16:45.448Z,6.20
2022-10-21T12:19:13.936Z,7.00
2022-10-21T12:21:45.048Z,7.85
2022-10-21T12:27:19.229Z,9.90
2022-10-21T12:29:52.376Z,9.00
2022-10-21T12:32:24.139Z,6.72
2022-10-21T12:34:51.419Z,4.43
2022-10-21T12:37:50.600Z,6.68
2022-10-21T12:40:37.597Z,7.45
2022-10-21T12:43:16.098Z,6.72
2022-10-21T12:45:44.498Z,9.85
2022-10-21T12:48:36.230Z,6.75
2022-10-21T12:51:07.841Z,7.90
2022-10-21T12:53:40.447Z,4.05
2022-10-21T12:56:11.041Z,3.63
2022-10-21T12:58:45.734Z,9.50
2022-10-21T13:01:34.423Z,6.15
2022-10-21T13:04:02.091Z,6.20
2022-10-21T13:06:59.247Z,11.98
2022-10-21T13:09:44.071Z,4.03
2022-10-21T13:12:11.440Z,9.30
2022-10-21T13:14:50.015Z,5.68
2022-10-21T13:17:23.453Z,7.53
2022-10-21T13:20:00.558Z,8.60
2022-10-21T13:22:37.936Z,9.98
2022-10-21T13:25:26.979Z,4.72
2022-10-21T13:28:26.913Z,37.55
2022-10-21T13:30:56.659Z,5.47
2022-10-21T13:33:27.332Z,12.88
2022-10-21T13:36:02.432Z,4.68
2022-10-21T13:38:32.788Z,6.65
2022-10-21T13:41:03.678Z,7.28
2022-10-21T13:43:54.882Z,6.57
2022-10-21T13:46:31.137Z,16.63
2022-10-21T13:49:01.220Z,8.15
2022-10-21T13:51:34.285Z,7.85
2022-10-21T13:54:13.468Z,9.25
2022-10-21T13:56:44.609Z,5.53
2022-10-21T13:59:31.310Z,6.10
2022-10-21T14:01:58.914Z,14.45
2022-10-21T14:04:34.878Z,6.18
2022-10-21T14:07:08.120Z,8.88
2022-10-21T14:09:59.129Z,7.93
2022-10-21T14:12:41.835Z,14.87
2022-10-21T14:15:19.396Z,14.27
2022-10-21T14:17:52.588Z,5.43
2022-10-21T14:20:29.820Z,11.48
2022-10-21T14:22:57.258Z,8.40
2022-10-21T14:25:24.803Z,17.17
2022-10-21T14:27:52.002Z,11.57
2022-10-21T14:30:25.364Z,10.18
2022-10-21T14:32:56.228Z,7.13
2022-10-21T14:35:36.167Z,6.65
2022-10-21T14:38:04.537Z,23.10
2022-10-21T14:40:33.527Z,24.27
2022-10-21T14:43:16.877Z,19.15
2022-10-21T14:45:53.069Z,15.25
2022-10-21T14:48:28.800Z,29.08
2022-10-21T14:51:01.148Z,35.72
2022-10-21T14:53:36.567Z,41.33
2022-10-21T14:56:07.442Z,26.60
2022-10-21T14:58:38.991Z,33.00
2022-10-21T15:01:18.534Z,27.42
2022-10-21T15:03:49.820Z,24.40
2022-10-21T15:06:37.157Z,20.42
2022-10-21T15:09:10.225Z,11.18
2022-10-21T15:11:45.364Z,20.25
2022-10-21T15:14:12.519Z,18.80
2022-10-21T15:17:10.481Z,17.95
2022-10-21T15:20:42.241Z,18.67
2022-10-21T15:23:20.278Z,23.33
2022-10-21T15:25:50.904Z,23.20
2022-10-21T15:28:20.087Z,32.33
2022-10-21T15:30:46.892Z,22.15
2022-10-21T15:33:14.219Z,16.80
2022-10-21T15:35:41.291Z,32.88
2022-10-21T15:38:09.034Z,42.83
2022-10-21T15:40:36.327Z,28.15
2022-10-21T15:43:03.408Z,29.48
2022-10-21T15:45:30.714Z,38.08
2022-10-21T15:47:57.742Z,30.45
2022-10-21T15:50:27.051Z,46.13
2022-10-21T15:55:21.321Z,39.15
2022-10-21T15:57:48.443Z,37.88
2022-10-21T16:00:23.418Z,31.88
2022-10-21T16:02:52.427Z,24.48
2022-10-21T16:05:21.472Z,25.48
2022-10-21T16:07:48.716Z,16.77
2022-10-21T16:10:26.779Z,26.05
2022-10-21T16:12:56.205Z,24.42
2022-10-21T16:15:25.156Z,19.40
2022-10-21T16:17:56.591Z,39.67
2022-10-21T16:20:25.207Z,42.30
2022-10-21T16:22:52.422Z,34.63
2022-10-21T16:25:19.774Z,48.25
2022-10-21T16:28:02.210Z,45.97
2022-10-21T16:30:37.340Z,36.65
2022-10-21T16:33:04.515Z,40.78
2022-10-21T16:35:31.961Z,37.38
2022-10-21T16:37:59.214Z,32.28
2022-10-21T16:40:33.786Z,37.08
2022-10-21T16:43:01.275Z,39.08
2022-10-21T16:45:30.691Z,38.00
2022-10-21T16:48:00.658Z,30.80
2022-10-21T16:50:37.052Z,19.38
2022-10-21T16:53:05.175Z,40.10
2022-10-21T16:55:32.382Z,37.38
2022-10-21T16:57:59.603Z,25.10
2022-10-21T17:00:26.577Z,28.88
2022-10-21T17:02:53.900Z,29.90
2022-10-21T17:05:21.050Z,28.42
2022-10-21T17:07:48.230Z,32.03
2022-10-21T17:10:15.773Z,25.48
2022-10-21T17:12:43.030Z,32.42
2022-10-21T17:15:15.786Z,40.97
2022-10-21T17:17:42.896Z,37.05
2022-10-21T17:20:10.671Z,46.58
2022-10-21T17:22:38.975Z,55.38
2022-10-21T17:25:06.610Z,34.90
2022-10-21T17:27:33.613Z,68.45
2022-10-21T17:30:00.662Z,55.83
2022-10-21T17:32:27.701Z,33.95
2022-10-21T17:34:54.864Z,33.67
2022-10-21T17:37:22.094Z,28.50
2022-10-21T17:39:49.518Z,21.02
2022-10-21T17:42:17.297Z,20.85
2022-10-21T17:44:44.456Z,18.42
2022-10-21T17:47:13.873Z,22.63
2022-10-21T17:49:41.754Z,33.47
2022-10-21T17:52:09.322Z,24.05
2022-10-21T17:54:36.600Z,25.63
2022-10-21T17:57:05.132Z,27.83
2022-10-21T17:59:33.408Z,34.28
2022-10-21T18:02:02.057Z,32.20
2022-10-21T18:04:28.938Z,34.80
2022-10-21T18:06:56.004Z,33.17
2022-10-21T18:09:23.167Z,21.95
2022-10-21T18:11:50.327Z,28.20
2022-10-21T18:14:17.936Z,80.60
2022-10-21T18:16:44.981Z,110.18
2022-10-21T18:19:12.258Z,65.90
2022-10-21T18:21:39.188Z,55.95
2022-10-21T18:24:09.985Z,60.20
2022-10-21T18:26:39.746Z,48.85
2022-10-21T18:29:06.662Z,35.53
2022-10-21T18:31:37.062Z,27.98
2022-10-21T18:34:05.943Z,26.92
2022-10-21T18:36:33.356Z,21.50
2022-10-21T18:39:00.988Z,28.85
2022-10-21T18:41:28.311Z,26.05
2022-10-21T18:44:00.374Z,31.30
2022-10-21T18:46:32.360Z,21.98
2022-10-21T18:49:03.430Z,27.35
2022-10-21T18:51:32.707Z,26.92
2022-10-21T18:53:59.939Z,31.85
2022-10-21T18:56:27.515Z,42.08
2022-10-21T18:58:58.835Z,38.22
2022-10-21T19:03:55.666Z,39.30
2022-10-21T19:06:31.858Z,52.38
2022-10-21T19:09:01.460Z,41.25
2022-10-21T19:11:29.278Z,42.95
2022-10-21T19:13:56.611Z,45.20
2022-10-21T19:16:23.727Z,35.00
2022-10-21T19:18:51.019Z,43.17
2022-10-21T19:21:19.361Z,32.03
2022-10-21T19:23:46.457Z,32.72
2022-10-21T19:26:14.580Z,23.80
2022-10-21T19:28:41.735Z,27.40
2022-10-21T19:31:12.112Z,36.28
2022-10-21T19:33:39.928Z,39.13
2022-10-21T19:36:07.970Z,54.65
2022-10-21T19:38:51.055Z,33.60
2022-10-21T19:41:22.951Z,22.33
2022-10-21T19:43:53.596Z,27.67
2022-10-21T19:46:25.512Z,29.85
2022-10-21T19:48:53.290Z,30.27
2022-10-21T19:51:22.855Z,28.08
2022-10-21T19:53:51.135Z,33.22
2022-10-21T19:56:23.787Z,31.95
2022-10-21T19:58:54.095Z,33.45
2022-10-21T20:01:23.708Z,30.67
2022-10-21T20:03:51.844Z,30.13
2022-10-21T20:06:22.532Z,31.00
2022-10-21T20:08:49.598Z,36.20
2022-10-21T20:11:19.366Z,34.50
2022-10-21T20:13:47.403Z,34.40
2022-10-21T20:16:20.245Z,54.50
2022-10-21T20:18:47.102Z,48.00
2022-10-21T20:21:14.469Z,51.55
2022-10-21T20:23:41.395Z,26.15
2022-10-21T20:26:08.677Z,24.73
2022-10-21T20:28:36.049Z,23.38
2022-10-21T20:31:06.611Z,26.33
2022-10-21T20:33:37.657Z,31.35
2022-10-21T20:36:06.765Z,34.10
2022-10-21T20:38:33.726Z,26.05
2022-10-21T20:41:22.583Z,32.05
2022-10-21T20:43:51.130Z,25.83
2022-10-21T20:46:19.723Z,27.95
2022-10-21T20:48:49.126Z,22.65
2022-10-21T20:51:19.617Z,21.45
2022-10-21T20:56:15.169Z,26.88
2022-10-21T20:58:42.935Z,15.32
2022-10-21T21:01:19.578Z,10.10
2022-10-21T21:03:50.295Z,21.25
2022-10-21T21:06:17.673Z,13.48
2022-10-21T21:08:49.184Z,13.13
2022-10-21T21:11:25.683Z,11.88
2022-10-21T21:13:52.670Z,19.40
2022-10-21T21:16:21.796Z,10.95
2022-10-21T21:18:55.911Z,12.25
2022-10-21T21:21:24.444Z,10.77
2022-10-21T21:23:51.963Z,12.20
2022-10-21T21:26:25.836Z,11.98
2022-10-21T21:28:53.708Z,11.43
2022-10-21T21:31:22.515Z,13.77
2022-10-21T21:33:49.915Z,13.63
2022-10-21T21:36:19.065Z,11.18
2022-10-21T21:38:46.864Z,13.02
2022-10-21T21:41:16.805Z,9.85
2022-10-21T21:43:46.540Z,16.05
2022-10-21T21:46:22.931Z,10.60
2022-10-21T21:49:00.944Z,11.65
2022-10-21T21:51:31.412Z,22.35
2022-10-21T21:53:59.509Z,9.02
2022-10-21T21:56:28.021Z,10.23
2022-10-21T21:58:56.197Z,18.42
2022-10-21T22:01:26.163Z,14.27
2022-10-21T22:03:54.205Z,15.57
2022-10-21T22:06:23.699Z,14.55
2022-10-21T22:08:51.520Z,13.07
2022-10-21T22:11:22.140Z,10.15
2022-10-21T22:13:50.043Z,15.32
2022-10-21T22:16:18.759Z,12.88
2022-10-21T22:18:46.138Z,10.77
2022-10-21T22:21:16.102Z,11.77
2022-10-21T22:23:43.117Z,7.47
2022-10-21T22:26:11.588Z,13.27
2022-10-21T22:28:39.365Z,10.38
2022-10-21T22:31:12.703Z,9.85
2022-10-21T22:36:16.388Z,9.43
2022-10-21T22:38:44.214Z,12.02
2022-10-21T22:41:12.690Z,17.40
2022-10-21T22:43:40.676Z,12.73
2022-10-21T22:46:29.391Z,11.98
2022-10-21T22:48:54.859Z,12.68
2022-10-21T22:51:21.945Z,13.00
2022-10-21T22:53:53.564Z,9.15
2022-10-21T22:56:25.795Z,17.88
2022-10-21T22:58:52.847Z,10.60
2022-10-21T23:01:20.378Z,13.38
2022-10-21T23:03:47.350Z,9.20
2022-10-21T23:06:14.669Z,10.10
2022-10-21T23:08:41.876Z,11.85
2022-10-21T23:11:09.010Z,8.35
2022-10-21T23:13:35.972Z,18.20
2022-10-21T23:16:02.922Z,12.50
2022-10-21T23:18:29.866Z,11.55
2022-10-21T23:20:56.750Z,9.40
2022-10-21T23:23:23.698Z,8.80
2022-10-21T23:25:50.632Z,7.78
2022-10-21T23:30:45.617Z,10.52
2022-10-21T23:33:12.399Z,15.98
2022-10-21T23:35:40.182Z,10.65
2022-10-21T23:38:07.211Z,9.98
2022-10-21T23:40:34.148Z,12.77
2022-10-21T23:43:00.919Z,9.98
2022-10-21T23:45:27.881Z,8.68
2022-10-21T23:47:54.965Z,10.05
2022-10-21T23:50:21.945Z,14.13
2022-10-21T23:52:48.906Z,9.82
2022-10-21T23:55:16.081Z,8.40
2022-10-21T23:57:43.255Z,7.72
